createdAt,value
2023-06-15T04:01:14.067Z,65.97
2023-06-15T04:05:25.988Z,66.49
2023-06-15T04:09:38.121Z,66.05
2023-06-15T04:13:49.834Z,66.86
2023-06-15T04:18:01.673Z,66.49
2023-06-15T04:22:14.325Z,66.63
2023-06-15T04:26:27.386Z,66.79
2023-06-15T04:30:46.725Z,66.47
2023-06-15T04:35:02.444Z,66.81
2023-06-15T04:39:14.298Z,67.17
2023-06-15T04:43:26.311Z,67.34
2023-06-15T04:47:38.539Z,68.07
2023-06-15T04:51:52.017Z,67.87
2023-06-15T04:56:04.397Z,67.61
2023-06-15T05:00:16.382Z,67.89
2023-06-15T05:04:34.313Z,67.21
2023-06-15T05:08:46.136Z,61.20
2023-06-15T05:13:11.068Z,53.19
2023-06-15T05:17:29.049Z,47.32
2023-06-15T05:21:52.868Z,44.23
2023-06-15T05:26:09.403Z,41.24
2023-06-15T05:30:34.692Z,38.59
2023-06-15T05:34:47.182Z,37.86
2023-06-15T05:38:59.117Z,35.98
2023-06-15T05:43:11.091Z,35.25
2023-06-15T05:47:23.241Z,35.09
2023-06-15T05:51:35.118Z,33.87
2023-06-15T05:55:47.249Z,35.05
2023-06-15T06:00:00.434Z,35.04
2023-06-15T06:04:12.069Z,35.67
2023-06-15T06:08:24.689Z,35.47
2023-06-15T06:12:36.864Z,34.86
2023-06-15T06:16:48.435Z,33.94
2023-06-15T06:21:01.204Z,34.15
2023-06-15T06:25:13.216Z,34.67
2023-06-15T06:29:24.884Z,36.60
2023-06-15T06:33:38.329Z,38.33
2023-06-15T06:37:50.324Z,38.92
2023-06-15T06:42:02.104Z,43.85
2023-06-15T06:46:23.426Z,44.66
2023-06-15T06:50:35.194Z,45.17
2023-06-15T06:54:46.740Z,45.31
2023-06-15T06:58:58.265Z,46.75
2023-06-15T07:03:10.075Z,46.74
2023-06-15T07:07:21.741Z,47.20
2023-06-15T07:11:33.333Z,47.78
2023-06-15T07:15:44.893Z,46.11
2023-06-15T07:19:56.435Z,44.51
2023-06-15T07:24:08.055Z,45.20
2023-06-15T07:28:20.553Z,45.50
2023-06-15T07:32:32.181Z,45.85
2023-06-15T07:36:43.816Z,45.79
2023-06-15T07:40:55.526Z,44.26
2023-06-15T07:45:07.740Z,44.97
2023-06-15T07:49:26.726Z,44.86
2023-06-15T07:53:44.538Z,45.26
2023-06-15T07:57:56.106Z,45.81
2023-06-15T08:02:07.779Z,45.35
2023-06-15T08:06:19.349Z,45.82
2023-06-15T08:10:30.925Z,44.63
2023-06-15T08:14:42.496Z,44.73
2023-06-15T08:18:54.045Z,45.34
2023-06-15T08:23:06.110Z,45.00
2023-06-15T08:27:17.658Z,45.43
2023-06-15T08:31:31.130Z,45.45
2023-06-15T08:35:42.680Z,45.72
2023-06-15T08:39:54.321Z,44.74
2023-06-15T08:44:09.240Z,46.93
2023-06-15T08:48:22.988Z,45.14
2023-06-15T08:52:35.947Z,45.95
2023-06-15T08:56:47.610Z,44.89
2023-06-15T09:01:01.434Z,44.57
2023-06-15T09:05:13.531Z,43.83
2023-06-15T09:09:25.199Z,43.27
2023-06-15T09:13:36.998Z,42.66
2023-06-15T09:17:52.634Z,41.68
2023-06-15T09:22:08.613Z,40.60
2023-06-15T09:26:27.047Z,39.93
2023-06-15T09:30:42.006Z,39.89
2023-06-15T09:35:00.793Z,40.29
2023-06-15T09:39:14.742Z,38.24
2023-06-15T09:43:34.893Z,38.83
2023-06-15T09:47:46.562Z,37.62
2023-06-15T09:51:58.615Z,36.66
2023-06-15T10:00:42.615Z,38.42
2023-06-15T10:04:54.905Z,37.64
2023-06-15T10:09:09.657Z,37.41
2023-06-15T10:13:30.394Z,35.97
2023-06-15T10:17:47.319Z,36.74
2023-06-15T10:21:59.206Z,35.86
2023-06-15T10:26:10.961Z,35.66
2023-06-15T10:30:29.666Z,36.23
2023-06-15T10:34:57.499Z,35.76
2023-06-15T10:39:09.793Z,35.17
2023-06-15T10:43:23.001Z,35.53
2023-06-15T10:47:34.574Z,34.56
2023-06-15T10:51:52.602Z,34.29
2023-06-15T10:56:12.925Z,34.76
2023-06-15T11:00:26.141Z,33.21
2023-06-15T11:04:37.858Z,33.90
2023-06-15T11:09:06.094Z,32.96
2023-06-15T11:13:25.534Z,33.44
2023-06-15T11:18:04.192Z,32.24
2023-06-15T11:22:27.111Z,32.92
2023-06-15T11:26:44.610Z,32.93
2023-06-15T11:30:56.463Z,32.13
2023-06-15T11:35:11.503Z,32.09
2023-06-15T11:39:24.026Z,32.61
2023-06-15T11:43:38.879Z,31.64
2023-06-15T11:47:50.570Z,31.80
2023-06-15T11:52:03.314Z,32.05
2023-06-15T11:56:16.829Z,32.68
2023-06-15T12:00:28.892Z,32.56
2023-06-15T12:04:40.726Z,32.23
2023-06-15T12:08:55.627Z,31.80
2023-06-15T12:13:13.897Z,31.77
2023-06-15T12:17:32.356Z,32.35
2023-06-15T12:21:44.826Z,32.56
2023-06-15T12:25:57.863Z,32.45
2023-06-15T12:30:14.913Z,31.22
2023-06-15T12:34:27.226Z,30.76
2023-06-15T12:38:39.821Z,30.10
2023-06-15T12:43:02.690Z,31.43
2023-06-15T12:47:14.225Z,30.95
2023-06-15T12:51:25.965Z,29.86
2023-06-15T12:55:37.649Z,29.67
2023-06-15T12:59:49.275Z,29.34
2023-06-15T13:04:01.405Z,29.94
2023-06-15T13:08:15.507Z,30.32
2023-06-15T13:12:27.051Z,31.52
2023-06-15T13:16:38.705Z,31.32
2023-06-15T13:20:50.325Z,31.85
2023-06-15T13:25:07.630Z,31.43
2023-06-15T13:29:19.171Z,31.03
2023-06-15T13:33:30.696Z,30.62
2023-06-15T13:37:43.187Z,29.14
2023-06-15T13:41:55.418Z,28.77
2023-06-15T13:46:06.966Z,27.51
2023-06-15T13:50:20.160Z,27.09
2023-06-15T13:54:32.308Z,27.95
2023-06-15T13:58:43.831Z,28.66
2023-06-15T14:02:55.494Z,28.67
2023-06-15T14:07:07.280Z,28.16
2023-06-15T14:11:18.896Z,28.49
2023-06-15T14:15:30.493Z,28.00
2023-06-15T14:19:42.052Z,27.53
2023-06-15T14:23:53.690Z,27.39
2023-06-15T14:28:05.606Z,26.87
2023-06-15T14:32:17.354Z,26.31
2023-06-15T14:36:29.002Z,27.03
2023-06-15T14:40:40.630Z,27.15
2023-06-15T14:44:52.451Z,26.32
2023-06-15T14:49:04.871Z,25.78
2023-06-15T14:53:16.710Z,26.05
2023-06-15T14:57:28.621Z,26.34
2023-06-15T15:01:40.216Z,25.75
2023-06-15T15:05:51.781Z,26.21
2023-06-15T15:10:03.785Z,27.22
2023-06-15T15:14:15.412Z,27.27
2023-06-15T15:18:28.116Z,27.54
2023-06-15T15:22:40.608Z,28.23
2023-06-15T15:26:52.186Z,26.63
2023-06-15T15:31:03.735Z,26.07
2023-06-15T15:35:15.293Z,26.76
2023-06-15T15:39:28.327Z,26.44
2023-06-15T15:43:40.032Z,26.63
2023-06-15T15:47:51.882Z,27.66
2023-06-15T15:52:03.581Z,28.58
2023-06-15T15:56:15.114Z,28.53
2023-06-15T16:00:27.128Z,29.17
2023-06-15T16:04:38.821Z,28.72
2023-06-15T16:08:50.475Z,29.82
2023-06-15T16:13:02.129Z,29.56
2023-06-15T16:17:14.356Z,30.17
2023-06-15T16:21:26.464Z,30.07
2023-06-15T16:25:38.058Z,29.80
2023-06-15T16:29:49.591Z,28.52
2023-06-15T16:34:01.252Z,29.03
2023-06-15T16:38:12.828Z,28.05
2023-06-15T16:42:28.145Z,27.29
2023-06-15T16:46:39.681Z,27.38
2023-06-15T16:50:51.420Z,28.15
2023-06-15T16:55:03.570Z,28.34
2023-06-15T16:59:15.095Z,28.01
2023-06-15T17:03:26.832Z,28.29
2023-06-15T17:07:38.574Z,27.94
2023-06-15T17:11:51.033Z,27.94
2023-06-15T17:16:03.328Z,28.48
2023-06-15T17:20:14.976Z,29.03
2023-06-15T17:24:27.818Z,29.55
2023-06-15T17:28:39.620Z,30.22
2023-06-15T17:32:51.156Z,30.52
2023-06-15T17:37:03.550Z,30.72
2023-06-15T17:41:16.093Z,31.43
2023-06-15T17:45:28.012Z,31.81
2023-06-15T17:49:39.559Z,32.57
2023-06-15T17:53:51.113Z,33.73
2023-06-15T17:58:02.668Z,33.74
2023-06-15T18:02:14.233Z,34.76
2023-06-15T18:06:25.821Z,34.63
2023-06-15T18:10:37.355Z,35.16
2023-06-15T18:14:48.903Z,35.69
2023-06-15T18:19:00.567Z,35.58
2023-06-15T18:23:12.427Z,35.84
2023-06-15T18:27:23.981Z,35.74
2023-06-15T18:36:16.190Z,36.41
2023-06-15T18:40:27.824Z,36.17
2023-06-15T18:44:39.407Z,36.30
2023-06-15T18:48:51.479Z,35.92
2023-06-15T18:53:03.767Z,35.71
2023-06-15T18:57:18.035Z,35.82
2023-06-15T19:01:29.644Z,36.80
2023-06-15T19:05:41.254Z,37.65
2023-06-15T19:09:52.957Z,38.36
2023-06-15T19:14:04.995Z,39.05
2023-06-15T19:18:16.886Z,40.58
2023-06-15T19:22:28.534Z,41.55
2023-06-15T19:26:40.608Z,42.54
2023-06-15T19:30:52.194Z,43.67
2023-06-15T19:35:04.067Z,42.72
2023-06-15T19:39:17.708Z,43.75
2023-06-15T19:43:29.371Z,45.22
2023-06-15T19:47:41.502Z,46.89
2023-06-15T19:51:53.189Z,49.14
2023-06-15T19:56:06.926Z,50.33
2023-06-15T20:00:19.000Z,51.89
2023-06-15T20:04:30.960Z,53.01
2023-06-15T20:08:43.789Z,54.24
2023-06-15T20:12:55.481Z,54.76
2023-06-15T20:17:07.145Z,55.73
2023-06-15T20:21:19.560Z,55.50
2023-06-15T20:25:31.156Z,56.01
2023-06-15T20:29:42.738Z,56.83
2023-06-15T20:33:55.346Z,56.80
2023-06-15T20:38:07.336Z,57.75
2023-06-15T20:42:19.033Z,57.89
2023-06-15T20:46:31.664Z,59.00
2023-06-15T20:50:43.374Z,59.40
2023-06-15T20:54:54.942Z,59.83
2023-06-15T20:59:06.511Z,60.11
2023-06-15T21:03:18.449Z,60.72
2023-06-15T21:07:30.101Z,60.77
2023-06-15T21:11:41.642Z,61.31
2023-06-15T21:15:54.190Z,61.27
2023-06-15T21:20:07.061Z,61.65
2023-06-15T21:24:18.685Z,61.46
2023-06-15T21:28:30.260Z,62.78
